Time;durP1;ratioP1;P1;durP2;ratioP2;P2;SDS_P1;SDS_P2;PMS_P1;PMS_P2;Temp;Humidity;BMP_temperature;BMP_pressure;BME280_temperature;BME280_humidity;BME280_pressure;Samples;Min_cycle;Max_cycle;Signal;HPM_P1;HPM_P2
2023/01/11 00:00:11;;;;;;;30.00;28.10;;;13.00;99.90;;;;;;4918152;29;20462;-84
2023/01/11 00:02:37;;;;;;;37.33;35.03;;;13.00;99.90;;;;;;4918259;29;20397;-83
2023/01/11 00:05:04;;;;;;;29.17;27.35;;;13.00;99.90;;;;;;4932952;29;20043;-84
2023/01/11 00:07:30;;;;;;;31.52;29.48;;;13.00;99.90;;;;;;4937582;29;20047;-84
2023/01/11 00:09:56;;;;;;;32.72;30.67;;;13.00;99.90;;;;;;4931975;29;20031;-84
2023/01/11 00:12:22;;;;;;;37.05;34.70;;;13.00;99.90;;;;;;4938939;29;20040;-83
2023/01/11 00:14:48;;;;;;;33.60;31.30;;;13.00;99.90;;;;;;4937495;29;20054;-84
2023/01/11 00:17:14;;;;;;;29.30;27.70;;;13.00;99.90;;;;;;4927922;28;20032;-83
2023/01/11 00:19:40;;;;;;;33.47;31.23;;;13.00;99.90;;;;;;4904163;29;20043;-82
2023/01/11 00:22:07;;;;;;;35.45;33.40;;;13.00;99.90;;;;;;4937577;29;20032;-83
2023/01/11 00:24:33;;;;;;;38.63;36.38;;;13.00;99.90;;;;;;4916856;29;20425;-84
2023/01/11 00:26:59;;;;;;;38.60;36.30;;;13.00;99.90;;;;;;4902385;29;20032;-84
2023/01/11 00:29:25;;;;;;;48.35;45.85;;;13.00;99.90;;;;;;4919600;29;20044;-84
2023/01/11 00:31:52;;;;;;;42.70;40.17;;;13.00;99.90;;;;;;4886016;29;20040;-84
2023/01/11 00:34:19;;;;;;;26.05;24.38;;;13.00;99.90;;;;;;4919915;29;20043;-84
2023/01/11 00:36:45;;;;;;;27.38;25.52;;;13.00;99.90;;;;;;4902461;29;20020;-84
2023/01/11 00:39:11;;;;;;;31.75;29.45;;;13.10;99.90;;;;;;4901902;29;20055;-84
2023/01/11 00:50:00;;;;;;;22.98;21.58;;;13.00;99.90;;;;;;4956376;28;20046;-84
2023/01/11 00:52:26;;;;;;;26.52;24.77;;;13.00;99.90;;;;;;4954842;29;20503;-84
2023/01/11 00:54:52;;;;;;;25.15;23.55;;;13.00;99.90;;;;;;4955938;28;20054;-84
2023/01/11 00:57:18;;;;;;;23.58;22.08;;;13.00;99.90;;;;;;4939890;29;20031;-84
2023/01/11 00:59:44;;;;;;;22.50;21.23;;;13.10;99.90;;;;;;4955512;28;20043;-84
2023/01/11 01:02:10;;;;;;;26.38;25.05;;;13.10;99.90;;;;;;4955352;28;20035;-84
2023/01/11 01:04:37;;;;;;;22.48;21.05;;;13.10;99.90;;;;;;4953794;28;20050;-84
2023/01/11 01:07:03;;;;;;;20.20;18.95;;;13.10;99.90;;;;;;4956409;29;20031;-84
2023/01/11 01:09:29;;;;;;;24.45;23.00;;;13.10;99.90;;;;;;4925251;29;20051;-84
2023/01/11 01:11:55;;;;;;;22.02;20.83;;;13.10;99.90;;;;;;4932526;29;20481;-84
2023/01/11 01:14:24;;;;;;;24.20;22.80;;;13.10;99.90;;;;;;4921445;29;20066;-84
2023/01/11 01:16:52;;;;;;;20.27;19.05;;;13.10;99.90;;;;;;4920252;29;20039;-83
2023/01/11 01:19:19;;;;;;;22.63;21.27;;;13.10;99.90;;;;;;4936201;29;20032;-84
2023/01/11 01:21:45;;;;;;;22.45;21.10;;;13.10;99.90;;;;;;4953124;28;20027;-84
2023/01/11 01:24:11;;;;;;;21.92;20.63;;;13.10;99.90;;;;;;4934766;29;20051;-84
2023/01/11 01:26:38;;;;;;;20.08;18.75;;;13.10;99.90;;;;;;4952092;29;20080;-84
2023/01/11 01:29:04;;;;;;;21.75;20.15;;;13.10;99.90;;;;;;4952028;29;20043;-84
2023/01/11 01:31:30;;;;;;;20.23;19.13;;;13.10;99.90;;;;;;4937062;28;20397;-84
2023/01/11 01:33:56;;;;;;;20.60;19.20;;;13.10;99.90;;;;;;4938090;29;20039;-85
2023/01/11 01:36:22;;;;;;;21.23;19.92;;;13.10;99.90;;;;;;4946747;29;20042;-85
2023/01/11 01:38:48;;;;;;;21.42;20.27;;;13.10;99.90;;;;;;4939232;29;20361;-85
2023/01/11 01:41:14;;;;;;;22.42;21.27;;;13.10;99.90;;;;;;4950078;28;20048;-85
2023/01/11 01:43:55;;;;;;;20.92;19.73;;;13.10;99.90;;;;;;4914521;29;20047;-85
2023/01/11 01:46:22;;;;;;;20.10;18.98;;;13.10;99.90;;;;;;4892022;29;20039;-85
2023/01/11 01:49:00;;;;;;;20.90;19.60;;;13.10;99.90;;;;;;4903457;29;20389;-85
2023/01/11 01:51:33;;;;;;;21.73;20.58;;;13.10;99.90;;;;;;4919500;29;20035;-85
2023/01/11 01:54:00;;;;;;;19.98;18.98;;;13.10;99.90;;;;;;4909823;29;20406;-85
2023/01/11 01:56:32;;;;;;;21.75;20.38;;;13.10;99.90;;;;;;4888577;29;20039;-84
2023/01/11 01:59:01;;;;;;;21.38;20.05;;;13.10;99.90;;;;;;4920501;29;20031;-84
2023/01/11 02:04:27;;;;;;;23.70;22.25;;;13.10;99.90;;;;;;4907425;29;20054;-84
2023/01/11 02:06:58;;;;;;;20.20;18.90;;;13.20;99.90;;;;;;4903814;29;20047;-85
2023/01/11 02:09:26;;;;;;;;;;;13.10;99.90;;;;;;4887431;29;20397;-84
2023/01/11 02:11:52;;;;;;;21.83;20.42;;;13.10;99.90;;;;;;4900448;29;20316;-85
2023/01/11 02:14:18;;;;;;;19.35;18.15;;;13.10;99.90;;;;;;4901909;29;20039;-84
2023/01/11 02:16:44;;;;;;;21.38;19.80;;;13.20;99.90;;;;;;4899945;29;20032;-85
2023/01/11 02:19:19;;;;;;;22.77;20.83;;;13.20;99.90;;;;;;4910554;29;20043;-84
2023/01/11 02:22:08;;;;;;;25.20;23.70;;;13.20;99.90;;;;;;4915226;29;20040;-84
2023/01/11 02:25:00;;;;;;;23.85;21.98;;;13.10;99.90;;;;;;4933660;29;20400;-84
2023/01/11 02:27:50;;;;;;;24.27;22.38;;;13.10;99.90;;;;;;4901088;29;20040;-84
2023/01/11 02:30:24;;;;;;;24.92;23.00;;;13.10;99.90;;;;;;4899536;29;20024;-84
2023/01/11 02:33:13;;;;;;;27.17;25.23;;;13.10;99.90;;;;;;4919109;29;20024;-84
2023/01/11 02:36:08;;;;;;;25.95;23.85;;;13.10;99.90;;;;;;4927079;29;20044;-84
2023/01/11 02:38:58;;;;;;;24.15;22.35;;;13.10;99.90;;;;;;4910638;29;20514;-84
2023/01/11 02:47:25;;;;;;;22.85;21.10;;;13.10;99.90;;;;;;4939866;28;20054;-84
2023/01/11 02:50:15;;;;;;;23.88;22.10;;;13.00;99.90;;;;;;4937652;29;20027;-84
2023/01/11 02:53:01;;;;;;;22.55;20.77;;;13.00;99.90;;;;;;4902903;29;20044;-84
2023/01/11 02:55:30;;;;;;;20.77;18.85;;;13.00;99.90;;;;;;4934364;29;20054;-84
2023/01/11 02:57:59;;;;;;;22.40;20.73;;;13.00;99.90;;;;;;4921748;29;20151;-84
2023/01/11 03:00:25;;;;;;;21.75;20.27;;;13.00;99.90;;;;;;4920978;28;20055;-84
2023/01/11 03:03:20;;;;;;;20.38;18.42;;;13.00;99.90;;;;;;4911214;29;20042;-84
2023/01/11 03:05:52;;;;;;;20.20;18.25;;;13.00;99.90;;;;;;4926662;29;20061;-84
2023/01/11 03:08:24;;;;;;;20.40;18.60;;;12.90;99.90;;;;;;4938445;29;20035;-84
2023/01/11 03:11:01;;;;;;;21.65;19.45;;;12.90;99.90;;;;;;4935016;29;20030;-84
2023/01/11 03:14:02;;;;;;;19.50;17.58;;;12.90;99.90;;;;;;4930495;29;20039;-84
2023/01/11 03:16:42;;;;;;;19.25;17.20;;;12.90;99.90;;;;;;4938774;28;20386;-84
2023/01/11 03:19:15;;;;;;;18.77;17.13;;;12.90;99.90;;;;;;4931102;29;20054;-84
2023/01/11 03:21:59;;;;;;;19.95;17.98;;;12.90;99.90;;;;;;4952059;28;20400;-84
2023/01/11 03:24:41;;;;;;;19.05;17.15;;;12.90;99.90;;;;;;4934734;29;20547;-84
2023/01/11 03:27:18;;;;;;;18.70;17.02;;;12.90;99.90;;;;;;4919825;29;20365;-84
2023/01/11 03:30:21;;;;;;;19.23;17.33;;;12.90;99.90;;;;;;4917799;29;20039;-84
2023/01/11 03:32:53;;;;;;;17.67;16.10;;;12.90;99.90;;;;;;4854111;29;20411;-84
2023/01/11 03:35:24;;;;;;;19.08;17.17;;;12.90;99.90;;;;;;4874646;29;20487;-84
2023/01/11 03:38:08;;;;;;;19.55;15.90;;;12.90;99.90;;;;;;4871275;29;20047;-84
2023/01/11 03:40:37;;;;;;;23.08;17.48;;;12.90;99.90;;;;;;4890107;29;20040;-83
2023/01/11 03:43:12;;;;;;;24.70;16.58;;;12.90;99.90;;;;;;4870365;29;20085;-84
2023/01/11 03:45:52;;;;;;;29.98;17.58;;;12.90;99.90;;;;;;4842655;29;20057;-83
2023/01/11 03:48:33;;;;;;;25.10;18.38;;;12.90;99.90;;;;;;4824012;29;20061;-84
2023/01/11 03:51:00;;;;;;;19.52;17.52;;;12.90;99.90;;;;;;4838850;29;20423;-84
2023/01/11 03:53:26;;;;;;;23.75;17.50;;;12.80;99.90;;;;;;4846770;29;20060;-84
2023/01/11 03:55:54;;;;;;;21.10;17.40;;;12.80;99.90;;;;;;4840997;29;20097;-83
2023/01/11 03:58:21;;;;;;;29.88;17.38;;;12.80;99.90;;;;;;4842679;29;20040;-84
2023/01/11 04:00:47;;;;;;;29.38;17.27;;;12.80;99.90;;;;;;4858919;29;20496;-84
2023/01/11 04:03:13;;;;;;;25.98;18.67;;;12.80;99.90;;;;;;4869380;29;20392;-83
2023/01/11 04:05:42;;;;;;;27.27;17.55;;;12.70;99.90;;;;;;4841493;29;20053;-84
2023/01/11 04:08:10;;;;;;;24.90;17.45;;;12.70;99.90;;;;;;4859635;29;20040;-84
2023/01/11 04:10:36;;;;;;;23.45;16.90;;;12.70;99.90;;;;;;4908002;29;20039;-84
2023/01/11 04:13:03;;;;;;;20.35;18.13;;;12.70;99.90;;;;;;4916558;29;20053;-83
2023/01/11 04:15:30;;;;;;;35.85;18.02;;;12.60;99.90;;;;;;4933247;28;20500;-83
2023/01/11 04:18:03;;;;;;;27.40;18.80;;;12.60;99.90;;;;;;4917265;29;20039;-83
2023/01/11 04:20:33;;;;;;;27.02;17.05;;;12.60;99.90;;;;;;4917221;29;20040;-83
2023/01/11 04:23:00;;;;;;;28.02;17.98;;;12.60;99.90;;;;;;4901278;29;20043;-83
2023/01/11 04:25:26;;;;;;;23.50;17.20;;;12.50;99.90;;;;;;4900623;29;20058;-83
2023/01/11 04:27:52;;;;;;;23.90;17.88;;;12.50;99.90;;;;;;4919059;29;20032;-84
2023/01/11 04:30:18;;;;;;;29.45;16.63;;;12.40;99.90;;;;;;4932983;28;20047;-85
2023/01/11 04:32:44;;;;;;;28.23;17.70;;;12.40;99.90;;;;;;4910731;29;20024;-84
2023/01/11 04:35:10;;;;;;;28.98;17.70;;;12.40;99.90;;;;;;4939622;28;20039;-84
2023/01/11 04:37:37;;;;;;;31.33;17.75;;;12.40;99.90;;;;;;4904716;29;20043;-85
2023/01/11 04:40:03;;;;;;;28.48;17.25;;;12.40;99.90;;;;;;4937979;29;20461;-85
2023/01/11 04:42:29;;;;;;;26.92;17.35;;;12.40;99.90;;;;;;4937652;29;20059;-84
2023/01/11 04:44:55;;;;;;;28.70;18.17;;;12.30;99.90;;;;;;4919598;29;20044;-84
2023/01/11 04:47:22;;;;;;;27.77;17.65;;;12.30;99.90;;;;;;4902654;29;20038;-85
2023/01/11 04:49:48;;;;;;;28.20;18.00;;;12.30;99.90;;;;;;4916332;29;20036;-86
2023/01/11 04:52:16;;;;;;;25.63;16.75;;;12.30;99.90;;;;;;4905269;29;20070;-86
2023/01/11 04:54:42;;;;;;;23.98;17.52;;;12.30;99.90;;;;;;4913662;29;20044;-85
2023/01/11 04:57:11;;;;;;;38.65;17.80;;;12.20;99.90;;;;;;4918124;29;20036;-85
2023/01/11 04:59:37;;;;;;;36.03;17.10;;;12.30;99.90;;;;;;4918679;29;20032;-86
2023/01/11 05:02:03;;;;;;;30.17;17.05;;;12.20;99.90;;;;;;4934050;28;20409;-85
2023/01/11 05:04:29;;;;;;;26.35;16.75;;;12.20;99.90;;;;;;4914153;29;20051;-85
2023/01/11 05:06:55;;;;;;;24.65;16.70;;;12.20;99.90;;;;;;4922105;29;20508;-86
2023/01/11 05:09:21;;;;;;;33.67;18.50;;;12.30;99.90;;;;;;4920359;29;20024;-84
2023/01/11 05:11:47;;;;;;;29.23;17.13;;;12.20;99.90;;;;;;4916450;29;20493;-84
2023/01/11 05:14:14;;;;;;;31.40;17.05;;;12.30;99.90;;;;;;4916968;29;20116;-85
2023/01/11 05:16:40;;;;;;;32.97;16.92;;;12.20;99.90;;;;;;4901525;29;20485;-85
2023/01/11 05:19:07;;;;;;;30.02;16.60;;;12.20;99.90;;;;;;4917811;29;20316;-85
2023/01/11 05:21:35;;;;;;;32.65;17.40;;;12.10;99.90;;;;;;4932738;29;20039;-85
2023/01/11 05:24:02;;;;;;;34.08;17.33;;;12.10;99.90;;;;;;4930340;29;20036;-84
2023/01/11 05:26:31;;;;;;;32.55;16.40;;;12.10;99.90;;;;;;4921307;29;20047;-85
2023/01/11 05:28:59;;;;;;;31.38;17.35;;;12.10;99.90;;;;;;4920594;29;20020;-85
2023/01/11 05:31:25;;;;;;;37.10;16.17;;;12.00;99.90;;;;;;4919983;28;20034;-85
2023/01/11 05:33:51;;;;;;;32.50;17.38;;;11.90;99.90;;;;;;4914944;29;20028;-85
2023/01/11 05:36:21;;;;;;;28.30;17.38;;;12.00;99.90;;;;;;4885760;29;20051;-85
2023/01/11 05:38:48;;;;;;;30.80;16.55;;;12.00;99.90;;;;;;4897257;29;20043;-85
2023/01/11 05:41:15;;;;;;;34.50;17.88;;;12.00;99.90;;;;;;4916829;29;20125;-85
2023/01/11 05:46:27;;;;;;;44.95;18.52;;;12.10;99.90;;;;;;4937634;28;20054;-85
2023/01/11 05:48:54;;;;;;;41.03;17.42;;;12.00;99.90;;;;;;4935857;29;20479;-85
2023/01/11 05:51:20;;;;;;;35.30;17.13;;;12.00;99.90;;;;;;4935509;29;20069;-85
2023/01/11 05:53:47;;;;;;;42.92;17.88;;;12.00;99.90;;;;;;4934355;29;20131;-85
2023/01/11 05:56:13;;;;;;;32.33;18.33;;;12.00;99.90;;;;;;4918627;29;20504;-85
2023/01/11 05:58:39;;;;;;;30.85;17.98;;;11.90;99.90;;;;;;4919376;29;20032;-85
2023/01/11 06:01:05;;;;;;;47.63;18.90;;;11.90;99.90;;;;;;4936351;28;20405;-86
2023/01/11 06:03:31;;;;;;;37.97;18.30;;;11.80;99.90;;;;;;4919056;29;20043;-85
2023/01/11 06:05:57;;;;;;;33.60;16.95;;;11.80;99.90;;;;;;4918237;29;20055;-85
2023/01/11 06:08:24;;;;;;;38.08;17.95;;;11.80;99.90;;;;;;4903098;29;20040;-85
2023/01/11 06:10:51;;;;;;;29.77;17.88;;;11.80;99.90;;;;;;4919559;29;20039;-85
2023/01/11 06:13:26;;;;;;;38.22;18.23;;;11.80;99.90;;;;;;4918491;29;20043;-85
2023/01/11 06:16:06;;;;;;;38.17;17.83;;;11.80;99.90;;;;;;4918774;28;20050;-85
2023/01/11 06:18:34;;;;;;;42.38;17.90;;;11.80;99.90;;;;;;4918811;29;20413;-85
2023/01/11 06:21:00;;;;;;;40.05;18.23;;;11.80;99.90;;;;;;4936833;29;20051;-85
2023/01/11 06:23:27;;;;;;;80.88;20.65;;;11.80;99.90;;;;;;4935420;29;20474;-85
2023/01/11 06:25:53;;;;;;;43.60;18.67;;;11.80;99.90;;;;;;4902540;29;20055;-85
2023/01/11 06:28:19;;;;;;;34.80;17.98;;;11.80;99.90;;;;;;4918715;29;20462;-85
2023/01/11 06:30:52;;;;;;;37.85;18.67;;;11.80;99.90;;;;;;4935006;28;20409;-85
2023/01/11 06:33:18;;;;;;;37.65;18.15;;;11.70;99.90;;;;;;4933856;29;20043;-85
2023/01/11 06:35:44;;;;;;;35.60;18.35;;;11.70;99.90;;;;;;4930890;29;20039;-85
2023/01/11 06:38:11;;;;;;;35.53;17.05;;;11.70;99.90;;;;;;4931625;29;20028;-85
2023/01/11 06:40:38;;;;;;;266.90;32.55;;;11.70;99.90;;;;;;4932026;28;20458;-85
2023/01/11 06:43:04;;;;;;;37.72;18.05;;;11.70;99.90;;;;;;4933363;29;20055;-85
2023/01/11 06:45:30;;;;;;;39.65;17.33;;;11.70;99.90;;;;;;4920469;28;20047;-85
2023/01/11 06:47:57;;;;;;;39.45;18.02;;;11.70;99.90;;;;;;4953697;29;20036;-85
2023/01/11 06:50:23;;;;;;;34.92;17.58;;;11.70;99.90;;;;;;4950404;28;20043;-84
2023/01/11 06:53:00;;;;;;;36.78;18.65;;;11.70;99.90;;;;;;4937938;29;20042;-85
2023/01/11 06:55:27;;;;;;;50.25;18.92;;;11.60;99.90;;;;;;4950614;29;20417;-85
2023/01/11 06:57:53;;;;;;;48.42;18.65;;;11.60;99.90;;;;;;4935132;29;20032;-85
2023/01/11 07:00:19;;;;;;;30.50;18.58;;;11.60;99.90;;;;;;4933202;28;20031;-85
2023/01/11 07:02:46;;;;;;;43.53;18.55;;;11.60;99.90;;;;;;4918600;29;20031;-84
2023/01/11 07:05:12;;;;;;;41.03;18.95;;;11.50;99.90;;;;;;4928106;28;20036;-84
2023/01/11 07:07:38;;;;;;;31.42;16.67;;;11.60;99.90;;;;;;4919072;29;20413;-87
2023/01/11 07:10:06;;;;;;;31.48;17.92;;;11.50;99.90;;;;;;4942521;28;20047;-85
2023/01/11 07:12:32;;;;;;;45.05;17.38;;;11.50;99.90;;;;;;4922506;29;20048;-85
2023/01/11 07:14:59;;;;;;;42.28;17.25;;;11.50;99.90;;;;;;4939035;29;20404;-83
2023/01/11 07:17:25;;;;;;;43.60;19.45;;;11.50;99.90;;;;;;4917701;28;20042;-85
2023/01/11 07:19:51;;;;;;;42.30;18.42;;;11.40;99.90;;;;;;4936611;28;20028;-84
2023/01/11 07:22:17;;;;;;;29.95;18.15;;;11.40;99.90;;;;;;4936494;29;20043;-84
2023/01/11 07:24:43;;;;;;;34.53;17.95;;;11.50;99.90;;;;;;4950838;29;20039;-85
2023/01/11 07:27:09;;;;;;;43.38;18.30;;;11.50;99.90;;;;;;4953304;29;20444;-85
2023/01/11 07:29:35;;;;;;;42.05;16.30;;;11.50;99.90;;;;;;4948973;29;20024;-89
2023/01/11 07:32:03;;;;;;;32.60;16.35;;;11.40;99.90;;;;;;4946010;28;20400;-89
2023/01/11 07:34:29;;;;;;;36.20;17.00;;;11.40;99.90;;;;;;4934884;29;20019;-88
2023/01/11 07:36:55;;;;;;;35.92;17.77;;;11.40;99.90;;;;;;4935348;29;20031;-88
2023/01/11 07:39:21;;;;;;;36.03;17.73;;;11.40;99.90;;;;;;4941913;28;20031;-89
2023/01/11 07:44:32;;;;;;;34.30;17.63;;;11.30;99.90;;;;;;4956792;28;20388;-89
2023/01/11 07:46:58;;;;;;;37.38;17.25;;;11.40;99.90;;;;;;4953787;28;20039;-90
2023/01/11 07:49:24;;;;;;;33.97;17.77;;;11.30;99.90;;;;;;4937209;29;20036;-88
2023/01/11 07:51:53;;;;;;;35.03;16.52;;;11.30;99.90;;;;;;4920119;28;20050;-89
2023/01/11 07:54:19;;;;;;;46.95;17.73;;;11.30;99.90;;;;;;4953994;28;20024;-89
2023/01/11 07:56:45;;;;;;;40.90;17.35;;;11.20;99.90;;;;;;4937415;29;20038;-90
2023/01/11 07:59:11;;;;;;;53.50;18.10;;;11.20;99.90;;;;;;4935251;29;20047;-89
2023/01/11 08:01:37;;;;;;;48.17;18.10;;;11.30;99.90;;;;;;4935319;28;20521;-84
2023/01/11 08:04:04;;;;;;;43.35;18.05;;;11.30;99.90;;;;;;4954348;29;20039;-94
2023/01/11 08:06:30;;;;;;;37.65;18.08;;;11.30;99.90;;;;;;4952836;29;20493;-90
2023/01/11 08:08:56;;;;;;;41.20;18.08;;;11.30;99.90;;;;;;4940615;29;20043;-90
2023/01/11 08:16:52;;;;;;;39.78;17.75;;;11.30;99.90;;;;;;4944371;28;20042;-89
2023/01/11 08:19:18;;;;;;;44.55;18.42;;;11.30;99.90;;;;;;4908719;29;20035;-90
2023/01/11 08:21:44;;;;;;;46.90;19.25;;;11.30;99.90;;;;;;4931686;29;20035;-89
2023/01/11 08:24:11;;;;;;;38.15;17.63;;;11.20;99.90;;;;;;4952980;29;20481;-89
2023/01/11 08:26:37;;;;;;;43.78;18.85;;;11.20;99.90;;;;;;4938463;29;20481;-88
2023/01/11 08:29:03;;;;;;;45.88;19.15;;;11.30;99.90;;;;;;4969200;28;20035;-89
2023/01/11 08:31:29;;;;;;;37.30;17.92;;;11.30;99.90;;;;;;4955956;28;20043;-87
2023/01/11 08:33:55;;;;;;;57.13;20.17;;;11.30;99.90;;;;;;4941272;29;20028;-89
2023/01/11 08:36:23;;;;;;;41.05;17.77;;;11.40;99.90;;;;;;4939444;29;20465;-91
2023/01/11 08:38:55;;;;;;;34.50;18.85;;;11.40;99.90;;;;;;4931856;29;20070;-88
2023/01/11 08:41:25;;;;;;;42.03;19.85;;;11.40;99.90;;;;;;4936662;29;20493;-87
2023/01/11 08:43:51;;;;;;;41.67;17.88;;;11.50;99.90;;;;;;4925583;29;20039;-85
2023/01/11 08:46:17;;;;;;;41.30;18.42;;;11.50;99.90;;;;;;4944331;28;20408;-86
2023/01/11 08:48:45;;;;;;;35.22;19.40;;;11.60;99.90;;;;;;4938378;29;20047;-88
2023/01/11 08:51:14;;;;;;;37.83;20.50;;;11.60;99.90;;;;;;4917471;29;20051;-89
2023/01/11 08:53:40;;;;;;;68.72;28.25;;;11.60;99.90;;;;;;4925903;29;20043;-90
2023/01/11 08:56:07;;;;;;;36.45;19.30;;;11.60;99.90;;;;;;4957354;29;20047;-93
2023/01/11 08:58:33;;;;;;;34.67;19.83;;;11.60;99.90;;;;;;4926624;29;20058;-96
2023/01/11 09:01:01;;;;;;;35.63;17.88;;;11.60;99.90;;;;;;4954152;28;20042;-95
2023/01/11 09:13:51;;;;;;;48.38;19.60;;;11.60;99.90;;;;;;5086122;23;20273;-91
2023/01/11 09:16:17;;;;;;;35.63;18.95;;;11.70;99.90;;;;;;4915074;29;20043;-90
2023/01/11 09:18:43;;;;;;;30.60;19.50;;;11.60;99.90;;;;;;4918434;29;20032;-90
2023/01/11 09:21:09;;;;;;;34.30;18.75;;;11.60;99.90;;;;;;4932515;29;20024;-90
2023/01/11 09:23:36;;;;;;;31.23;18.40;;;11.70;99.90;;;;;;4938021;29;20032;-89
2023/01/11 09:26:02;;;;;;;32.45;20.15;;;11.70;99.90;;;;;;4920230;29;20032;-86
2023/01/11 09:28:28;;;;;;;34.58;18.13;;;11.60;99.90;;;;;;4910586;29;20047;-86
2023/01/11 09:30:54;;;;;;;37.78;17.98;;;11.70;99.90;;;;;;4936868;29;20481;-86
2023/01/11 09:33:20;;;;;;;40.45;19.27;;;11.70;99.90;;;;;;4919588;29;20042;-86
2023/01/11 09:35:48;;;;;;;38.80;17.55;;;11.70;99.90;;;;;;4900592;29;20493;-86
2023/01/11 09:38:14;;;;;;;29.58;16.90;;;11.70;99.90;;;;;;4901505;29;20028;-86
2023/01/11 09:41:18;;;;;;;32.25;18.52;;;11.80;99.90;;;;;;4885610;29;20066;-86
2023/01/11 09:44:14;;;;;;;38.08;20.40;;;11.70;99.90;;;;;;4911835;29;20481;-86
2023/01/11 09:46:50;;;;;;;29.85;18.65;;;11.80;99.90;;;;;;4900988;29;20059;-86
2023/01/11 09:49:22;;;;;;;32.80;18.23;;;11.80;99.90;;;;;;4905066;29;20019;-86
2023/01/11 09:51:48;;;;;;;41.38;19.27;;;11.80;99.90;;;;;;4920234;29;20042;-86
2023/01/11 09:54:23;;;;;;;35.67;19.75;;;11.80;99.90;;;;;;4918783;29;20036;-86
2023/01/11 09:56:53;;;;;;;32.42;20.83;;;11.70;99.90;;;;;;4918810;29;20499;-87
2023/01/11 09:59:33;;;;;;;30.15;20.65;;;11.70;99.90;;;;;;4918107;29;20039;-87
2023/01/11 10:02:18;;;;;;;31.40;20.52;;;11.60;99.90;;;;;;4922967;28;20044;-89
2023/01/11 10:05:01;;;;;;;32.33;20.90;;;11.60;99.90;;;;;;4922235;29;20035;-86
2023/01/11 10:07:52;;;;;;;31.88;20.38;;;11.60;99.90;;;;;;4900401;29;20066;-88
2023/01/11 10:10:21;;;;;;;26.25;19.92;;;11.60;99.90;;;;;;4946256;29;20376;-87
2023/01/11 10:13:17;;;;;;;27.63;20.10;;;11.70;99.90;;;;;;4939437;29;20055;-87
2023/01/11 10:16:06;;;;;;;25.60;20.33;;;11.80;99.90;;;;;;4897143;29;20040;-85
2023/01/11 10:18:41;;;;;;;40.30;20.60;;;12.00;99.90;;;;;;4886970;29;20051;-86
2023/01/11 10:21:13;;;;;;;30.15;20.92;;;12.10;99.90;;;;;;4939202;29;20389;-87
2023/01/11 10:24:03;;;;;;;33.90;21.38;;;12.20;99.90;;;;;;4921415;29;20031;-87
2023/01/11 10:26:38;;;;;;;40.90;21.50;;;12.20;99.90;;;;;;4918316;29;20047;-87
2023/01/11 10:29:21;;;;;;;31.38;20.20;;;12.20;99.90;;;;;;4904509;29;20028;-88
2023/01/11 10:40:13;;;;;;;26.88;18.30;;;12.30;99.90;;;;;;4922584;29;20039;-85
2023/01/11 10:42:50;;;;;;;26.37;16.23;;;12.40;99.90;;;;;;4921510;29;20035;-85
2023/01/11 10:45:24;;;;;;;30.58;17.05;;;12.50;99.90;;;;;;4917607;29;20319;-88
2023/01/11 10:48:01;;;;;;;29.80;17.48;;;12.50;99.90;;;;;;4918353;29;20040;-86
2023/01/11 10:50:53;;;;;;;38.10;18.80;;;12.50;99.90;;;;;;4919223;29;20028;-84
2023/01/11 10:53:26;;;;;;;23.80;16.30;;;12.50;99.90;;;;;;4904517;29;20389;-84
2023/01/11 10:56:17;;;;;;;29.85;17.10;;;12.50;99.90;;;;;;4902037;29;20027;-87
2023/01/11 10:58:49;;;;;;;24.85;16.35;;;12.60;99.90;;;;;;4924013;29;20051;-85
2023/01/11 11:01:27;;;;;;;31.80;17.10;;;12.70;99.90;;;;;;4934085;29;20032;-86
2023/01/11 11:04:15;;;;;;;31.08;17.50;;;12.80;99.90;;;;;;4900437;29;20032;-86
2023/01/11 11:06:49;;;;;;;26.83;19.10;;;12.80;99.90;;;;;;4920668;29;20485;-85
2023/01/11 11:09:22;;;;;;;31.33;20.25;;;12.90;99.90;;;;;;4921334;29;20031;-90
2023/01/11 11:11:52;;;;;;;24.40;18.52;;;12.90;99.90;;;;;;4945206;29;20035;-86
2023/01/11 11:14:33;;;;;;;26.52;17.17;;;12.90;99.90;;;;;;4917847;29;20489;-89
2023/01/11 11:17:17;;;;;;;25.58;17.50;;;13.00;99.90;;;;;;4901071;29;20036;-88
2023/01/11 11:19:43;;;;;;;30.75;14.75;;;12.90;99.90;;;;;;4925977;29;20031;-87
2023/01/11 11:22:12;;;;;;;31.73;17.02;;;12.90;99.90;;;;;;4919967;29;20390;-88
2023/01/11 11:24:59;;;;;;;26.00;15.70;;;13.00;99.90;;;;;;4913194;29;20027;-89
2023/01/11 11:27:54;;;;;;;23.25;16.27;;;12.90;99.90;;;;;;4916368;29;20044;-87
2023/01/11 11:30:32;;;;;;;24.10;15.32;;;12.90;99.90;;;;;;4913122;28;20028;-87
2023/01/11 11:33:00;;;;;;;29.80;16.00;;;12.90;99.90;;;;;;4915487;29;20035;-88
2023/01/11 11:35:32;;;;;;;22.73;15.55;;;12.90;99.90;;;;;;4910404;29;20545;-86
2023/01/11 11:37:58;;;;;;;28.20;15.43;;;12.90;99.90;;;;;;4922715;29;20040;-87
2023/01/11 11:40:35;;;;;;;23.20;14.48;;;13.00;99.90;;;;;;4916643;29;20028;-86
2023/01/11 11:43:09;;;;;;;24.42;15.60;;;13.10;99.90;;;;;;4921586;29;20358;-87
2023/01/11 11:45:35;;;;;;;25.88;15.35;;;13.10;99.90;;;;;;4920886;29;20036;-89
2023/01/11 11:48:04;;;;;;;24.75;16.08;;;13.30;99.90;;;;;;4921436;29;20047;-87
2023/01/11 11:50:30;;;;;;;27.30;16.45;;;13.40;99.90;;;;;;4920718;29;20473;-87
2023/01/11 11:53:02;;;;;;;32.13;17.73;;;13.40;99.90;;;;;;4904418;29;20104;-86
2023/01/11 11:55:30;;;;;;;32.05;16.60;;;13.50;99.90;;;;;;4922206;29;20031;-86
2023/01/11 11:57:57;;;;;;;30.40;18.13;;;13.60;99.90;;;;;;4900804;29;20051;-87
2023/01/11 12:00:26;;;;;;;26.52;17.95;;;13.60;99.90;;;;;;4893164;28;20046;-82
2023/01/11 12:03:06;;;;;;;30.42;16.30;;;13.70;99.90;;;;;;4904703;29;20039;-85
2023/01/11 12:05:32;;;;;;;24.83;15.57;;;13.70;99.90;;;;;;4920079;29;20042;-86
2023/01/11 12:07:58;;;;;;;23.17;16.08;;;13.80;99.90;;;;;;4871196;29;20289;-86
2023/01/11 12:10:26;;;;;;;28.40;17.23;;;13.80;99.90;;;;;;4913233;29;20407;-86
2023/01/11 12:12:54;;;;;;;22.48;18.02;;;13.90;99.90;;;;;;4919397;29;20043;-83
2023/01/11 12:15:23;;;;;;;29.00;15.95;;;14.00;99.90;;;;;;4919904;29;20027;-82
2023/01/11 12:17:49;;;;;;;25.48;15.43;;;14.10;99.90;;;;;;4937425;29;20414;-82
2023/01/11 12:20:21;;;;;;;24.73;14.25;;;14.10;99.90;;;;;;4936750;29;20044;-82
2023/01/11 12:23:07;;;;;;;24.85;14.80;;;13.90;99.90;;;;;;4937450;29;20338;-83
2023/01/11 12:25:51;;;;;;;24.77;16.58;;;13.90;99.90;;;;;;4890511;29;20059;-82
2023/01/11 12:28:36;;;;;;;26.38;15.48;;;13.90;99.90;;;;;;4922390;29;20070;-82
2023/01/11 12:31:14;;;;;;;26.67;16.42;;;13.90;99.90;;;;;;4922001;29;20039;-82
2023/01/11 12:33:52;;;;;;;25.83;16.95;;;13.90;99.90;;;;;;4886489;29;20052;-84
2023/01/11 12:36:38;;;;;;;26.17;16.92;;;14.00;99.90;;;;;;4930461;29;20039;-85
2023/01/11 12:39:16;;;;;;;25.10;16.98;;;14.00;99.90;;;;;;4921269;29;20504;-82
2023/01/11 12:41:48;;;;;;;23.92;15.77;;;14.00;99.90;;;;;;4936172;29;20047;-82
2023/01/11 12:44:33;;;;;;;22.33;14.15;;;14.00;99.90;;;;;;4920590;29;20028;-82
2023/01/11 12:47:08;;;;;;;28.00;17.48;;;14.00;99.90;;;;;;4920036;29;20059;-82
2023/01/11 12:49:37;;;;;;;27.83;17.23;;;14.10;99.90;;;;;;4936570;29;20027;-82
2023/01/11 12:52:18;;;;;;;28.02;18.42;;;14.10;99.90;;;;;;4937260;29;20047;-82
2023/01/11 12:54:54;;;;;;;25.40;16.02;;;14.10;99.90;;;;;;4936926;29;20031;-82
2023/01/11 12:57:29;;;;;;;18.98;15.48;;;14.10;99.90;;;;;;4889028;29;20032;-82
2023/01/11 13:00:13;;;;;;;21.42;15.20;;;14.20;99.90;;;;;;4902560;29;20504;-82
2023/01/11 13:03:26;;;;;;;25.40;15.77;;;14.20;99.90;;;;;;4907259;29;20043;-81
2023/01/11 13:06:13;;;;;;;24.23;15.02;;;14.10;99.90;;;;;;4859102;29;20038;-82
2023/01/11 13:09:02;;;;;;;18.15;15.45;;;14.00;99.90;;;;;;4846308;29;20538;-82
2023/01/11 13:11:42;;;;;;;27.23;16.45;;;14.00;99.90;;;;;;4859830;29;20403;-82
2023/01/11 13:14:45;;;;;;;19.55;14.52;;;13.90;99.90;;;;;;4858155;29;20061;-81
2023/01/11 13:17:14;;;;;;;21.85;15.20;;;14.00;99.90;;;;;;4859147;29;20045;-82
2023/01/11 13:20:04;;;;;;;19.27;15.82;;;14.10;99.90;;;;;;4860923;29;20033;-82
2023/01/11 13:22:39;;;;;;;19.73;14.05;;;14.20;99.90;;;;;;4877943;29;20056;-81
2023/01/11 13:25:20;;;;;;;23.63;15.45;;;14.20;99.90;;;;;;4843288;29;20056;-82
2023/01/11 13:27:46;;;;;;;16.58;13.95;;;14.00;99.90;;;;;;4843470;29;20049;-81
2023/01/11 13:30:12;;;;;;;19.70;12.93;;;13.80;99.90;;;;;;4828907;29;20042;-81
2023/01/11 13:32:39;;;;;;;21.92;14.60;;;13.80;99.90;;;;;;4844081;29;20037;-81
2023/01/11 13:35:14;;;;;;;16.83;13.98;;;13.70;99.90;;;;;;4843589;29;20049;-81